x

Santa Monica Basin - 33nm Wsw Of Santa Monica, Ca (46025) Wave Buoy

9:50pm - Mon 31st Aug 2015 All times are PDT. -7 hours from GMT.

  • Sig Wave height 3.3ft
  • Swell Direction
  • Peak Period 15s
  • Average Period 6s
  • Wind
    7mph, 9mph gusts
  • Sea Temp 73°f
  • Air Temp 69°f
  • Sea Pressure 1012mb
  • Santa Monica Basin - 33nm Wsw Of Santa Monica, Ca
  • Santa Monica Basin - 33nm Wsw Of Santa Monica, Ca

More Historic Weather Station data

Upgrade to MSW Pro to gain access to the past 30 days of data for over 8000 Wavebouys and Weather Stations around the globe.

Join Pro

Comparision Forecast

View Surf forecast
   
Mon 08/31 9:50pm 3.5ft 15s 6s 7 9 mph 1012mb 73f 69f
8:50pm 3.5ft 15s 6s 4
mph
1011.4mb 72f 69f
7:50pm 3ft 15s 6s 11 13 mph 1010.5mb 73f 70f
6:50pm 3ft 15s 6s 11 13 mph 1010.6mb 74f 69f
5:50pm 3ft 16s 6s 13 16 mph 1010.8mb 73f 70f
4:50pm 3.5ft 8s 6s 9 11 mph 1011.3mb 74f 70f
3:50pm 3.5ft 15s 7s 9
mph
1011.7mb 74f 70f
2:50pm 3.5ft 16s 7s 4 7 mph 1012.3mb 74f 70f
1:50pm 3.5ft 8s 7s 4
mph
1012.8mb 74f 70f
12:50pm 3ft 8s 6s 7
mph
1013.1mb 73f 69f
11:50am 3.5ft 16s 6s 11 13 mph 1013.2mb 73f 69f
10:50am 4ft 9s 6s 11
mph
1013mb 73f 69f
9:50am 4ft 16s 6s 9 11 mph 1012.7mb 73f 70f
8:50am 3.5ft 8s 6s 4 7 mph 1012.5mb 73f 70f
7:50am 3.5ft 8s 6s 9 13 mph 1011.9mb 73f 70f
6:50am 3.5ft 8s 6s 7 11 mph 1011.2mb 73f 71f
5:50am 4.5ft 9s 7s 9 11 mph 1011.1mb 73f 70f
4:50am 4ft 9s 7s 7 9 mph 1010.7mb 73f 70f
3:50am 4ft 16s 7s 9 11 mph 1010.1mb 73f 70f
2:50am 3.5ft 14s 7s 9 11 mph 1009.9mb 73f 71f
1:50am 3.5ft 13s 6s 9
mph
1010mb 73f 71f
12:50am 4ft 16s 6s 7 9 mph 1010.3mb 73f 71f
Sun 08/30 11:50pm 4ft 14s 6s 2 4 mph 1010.1mb 73f 71f
10:50pm 4.5ft 13s 6s  -  2 mph 1009.9mb 73f 71f
9:50pm 4.5ft 6s 6s 4 7 mph 1009.8mb 73f 71f
8:50pm 4.5ft 6s 5s 7 9 mph 1009.7mb 74f 71f
7:50pm 4.5ft 6s 5s 7 9 mph 1009mb 74f 71f
6:50pm 4.5ft 6s 6s 11
mph
1009.4mb 74f 72f
5:50pm 4.5ft 6s 6s 9 11 mph 1009.9mb 74f 72f
4:50pm 4.5ft 6s 6s 2 4 mph 1010.4mb 74f 73f
3:50pm 4.5ft 6s 5s 9
mph
1010.9mb 74f 72f
2:50pm 4.5ft 14s 6s 9 11 mph 1011.6mb 74f 71f
1:50pm 4.5ft 7s 6s 11 13 mph 1012.3mb 74f 72f
12:50pm 4.5ft 7s 6s 4 7 mph 1012.7mb 74f 72f
11:50am 4.5ft 7s 6s 7 9 mph 1013.1mb 74f 71f
10:50am 4.5ft 7s 6s 9
mph
1013mb 73f 71f
9:50am 4.5ft 6s 6s 7 9 mph 1012.8mb 73f 72f
8:50am 4.5ft 6s 6s 7 9 mph 1012.7mb 73f 71f
7:50am 4.5ft 6s 5s 16 20 mph 1012.1mb 73f 72f
6:50am 5ft 6s 6s 4 7 mph 1012mb 73f 71f
5:50am 4.5ft 6s 5s 7 11 mph 1011.3mb 73f 72f
4:50am 4.5ft 6s 5s 7 9 mph 1011.3mb 73f 72f
3:50am 4.5ft 6s 5s 9 11 mph 1010.9mb 73f 72f
2:50am 5ft 6s 6s 11 13 mph 1010.9mb 73f 72f
1:50am 4.5ft 6s 5s 9 11 mph 1010.9mb 73f 72f
12:50am 4.5ft 6s 6s 9 11 mph 1010.8mb 73f 73f
Sat 08/29 11:50pm 4.5ft 14s 6s 13
mph
1010.5mb 73f 72f
10:50pm 5ft 5s 5s 13 18 mph 1010.4mb 73f 72f
9:50pm 5ft 5s 5s 13 16 mph 1010.4mb 73f 72f
8:50pm 5.5ft 6s 6s 11 13 mph 1010.2mb 73f 73f
7:50pm 5ft 6s 6s 13 16 mph 1009.8mb 74f 72f
6:50pm 4.5ft 6s 5s 9 11 mph 1009.8mb 73f 74f
5:50pm 3.5ft 14s 6s 13 16 mph 1010.1mb 74f 73f
4:50pm 3.5ft 15s 6s 9 11 mph 1010.6mb 74f 74f
3:50pm 3ft 14s 6s 7 9 mph 1011.3mb 75f 74f
2:50pm 3.5ft 14s 6s 9 11 mph 1011.7mb 75f 73f
1:50pm 3ft 14s 6s 4 7 mph 1012.2mb 76f 74f
12:50pm 3ft 15s 6s 2
mph
1012.5mb 75f 73f
11:50am 3ft 14s 6s 4
mph
1012.9mb 74f 73f
10:50am 3ft 15s 6s 7 9 mph 1012.9mb 74f 73f
9:50am 3ft 14s 6s 2 4 mph 1012.6mb 73f 72f
8:50am 3ft 15s 6s 7
mph
1012.2mb 73f 72f
7:50am 3ft 15s 6s 7 11 mph 1012.1mb 73f 73f
6:50am 3.5ft 15s 5s 7 9 mph 1011.3mb 73f 73f
5:50am 3.5ft 14s 6s 7
mph
1011mb 73f 73f
4:50am 3.5ft 15s 6s 9 11 mph 1010.6mb 73f 74f
3:50am 3.5ft 15s 6s 4
mph
1010.7mb 73f 73f
2:50am 3.5ft 14s 6s 4 7 mph 1010.9mb 74f 73f
1:50am 3.5ft 6s 5s 2 4 mph 1011mb 74f 73f
12:50am 3.5ft 15s 6s  -  2 mph 1011mb 73f 73f
Fri 08/28 11:50pm 3ft 15s 5s 4
mph
1010.7mb 74f 73f
10:50pm 3ft 15s 6s 2
mph
1010.5mb 73f 73f
9:50pm 2.5ft 15s 6s 2 4 mph 1010.4mb 73f 73f
8:50pm 2.5ft 15s 6s 2 4 mph 1009.7mb 74f 73f
7:50pm 2.5ft 15s 7s 9
mph
1009.3mb 74f 73f
6:50pm 2.5ft 14s 6s 7 9 mph 1009.3mb 74f 74f
5:50pm 2.5ft 15s 6s 11 13 mph 1009.7mb 75f 74f
4:50pm 2.5ft 15s 7s 11 13 mph 1010.1mb 75f 75f
3:50pm 2.5ft 15s 7s 11
mph
1010.3mb 75f 76f
2:50pm 2.5ft 15s 7s 4 7 mph 1010.9mb 75f 76f
1:50pm 2.5ft 16s 7s 4 7 mph 1011.4mb 75f 75f
12:50pm 2.5ft 15s 7s 2 4 mph 1011.7mb 74f 75f
11:50am 2.5ft 15s 7s 2
mph
1012.2mb 75f 74f
10:50am 2.5ft 15s 7s 2
mph
1012.5mb 74f 73f
9:50am 2.5ft 14s 7s 2
mph
1012.5mb 74f 73f
8:50am 2.5ft 16s 6s  -  2 mph 1012.4mb 74f 73f
7:50am 2.5ft 15s 6s 4
mph
1012.1mb 74f 72f
6:50am 2.5ft 15s 6s 7
mph
1011.5mb 74f 72f